createdAt,value
2022-10-17T00:01:07.709Z,10.89
2022-10-17T00:03:38.304Z,10.72
2022-10-17T00:06:08.158Z,11.07
2022-10-17T00:08:36.687Z,10.95
2022-10-17T00:11:07.137Z,10.95
2022-10-17T00:13:35.916Z,10.71
2022-10-17T00:16:04.161Z,10.84
2022-10-17T00:18:33.275Z,11.09
2022-10-17T00:21:02.764Z,11.03
2022-10-17T00:23:31.219Z,10.91
2022-10-17T00:26:00.678Z,11.03
2022-10-17T00:28:29.101Z,11.16
2022-10-17T00:30:58.785Z,11.15
2022-10-17T00:33:27.161Z,11.22
2022-10-17T00:36:05.949Z,11.12
2022-10-17T00:38:34.950Z,11.13
2022-10-17T00:41:03.445Z,11.18
2022-10-17T00:43:50.232Z,10.98
2022-10-17T00:46:18.638Z,11.21
2022-10-17T00:48:49.623Z,11.26
2022-10-17T00:51:21.782Z,11.17
2022-10-17T00:53:51.843Z,11.26
2022-10-17T00:56:21.750Z,11.11
2022-10-17T00:58:50.065Z,11.06
2022-10-17T01:01:18.460Z,11.02
2022-10-17T01:03:46.845Z,11.02
2022-10-17T01:06:15.192Z,10.80
2022-10-17T01:08:44.860Z,10.71
2022-10-17T01:11:23.437Z,10.71
2022-10-17T01:13:58.149Z,10.87
2022-10-17T01:16:37.900Z,10.73
2022-10-17T01:19:26.683Z,10.95
2022-10-17T01:22:00.811Z,10.89
2022-10-17T01:25:00.469Z,10.87
2022-10-17T01:27:55.212Z,10.96
2022-10-17T01:31:00.324Z,11.06
2022-10-17T01:33:45.086Z,10.96
2022-10-17T01:36:20.306Z,11.21
2022-10-17T01:38:51.731Z,11.32
2022-10-17T01:41:28.600Z,11.22
2022-10-17T01:44:00.976Z,11.28
2022-10-17T01:46:35.876Z,10.98
2022-10-17T01:49:06.950Z,10.99
2022-10-17T01:51:39.562Z,10.92
2022-10-17T01:54:13.013Z,10.99
2022-10-17T01:56:43.654Z,10.82
2022-10-17T01:59:15.438Z,10.49
2022-10-17T02:01:47.002Z,10.39
2022-10-17T02:04:16.452Z,10.41
2022-10-17T02:06:44.696Z,10.37
2022-10-17T02:09:23.576Z,10.68
2022-10-17T02:12:02.576Z,10.73
2022-10-17T02:14:44.345Z,10.54
2022-10-17T02:17:24.539Z,10.55
2022-10-17T02:20:02.839Z,10.52
2022-10-17T02:22:38.809Z,10.44
2022-10-17T02:25:15.770Z,10.52
2022-10-17T02:27:49.091Z,10.48
2022-10-17T02:30:27.450Z,10.53
2022-10-17T02:33:01.579Z,10.39
2022-10-17T02:35:37.802Z,10.19
2022-10-17T02:38:09.046Z,10.03
2022-10-17T02:40:39.103Z,9.98
2022-10-17T02:43:08.648Z,10.00
2022-10-17T02:45:38.753Z,10.21
2022-10-17T02:48:13.366Z,10.10
2022-10-17T02:50:52.651Z,10.37
2022-10-17T02:53:29.114Z,10.44
2022-10-17T02:56:02.645Z,10.13
2022-10-17T02:58:34.531Z,10.16
2022-10-17T03:01:03.005Z,10.00
2022-10-17T03:03:33.763Z,10.14
2022-10-17T03:06:03.255Z,10.02
2022-10-17T03:08:31.512Z,10.05
2022-10-17T03:11:01.676Z,10.21
2022-10-17T03:13:33.881Z,10.06
2022-10-17T03:16:06.312Z,10.11
2022-10-17T03:18:35.980Z,10.03
2022-10-17T03:21:05.420Z,10.14
2022-10-17T03:23:33.539Z,10.04
2022-10-17T03:26:04.899Z,10.09
2022-10-17T03:28:36.200Z,10.31
2022-10-17T03:31:08.357Z,10.21
2022-10-17T03:33:39.095Z,10.15
2022-10-17T03:36:08.290Z,10.25
2022-10-17T03:38:36.856Z,10.13
2022-10-17T03:41:05.684Z,10.06
2022-10-17T03:43:34.575Z,10.03
2022-10-17T03:46:03.401Z,9.98
2022-10-17T03:48:32.774Z,9.96
2022-10-17T03:51:05.236Z,9.89
2022-10-17T03:53:36.340Z,10.06
2022-10-17T03:56:13.939Z,10.26
2022-10-17T03:58:43.148Z,10.00
2022-10-17T04:01:14.337Z,9.93
2022-10-17T04:03:45.226Z,9.87
2022-10-17T04:06:14.824Z,9.91
2022-10-17T04:08:45.973Z,10.04
2022-10-17T04:11:20.768Z,10.00
2022-10-17T04:13:54.477Z,9.92
2022-10-17T04:16:22.925Z,9.89
2022-10-17T04:19:01.405Z,9.77
2022-10-17T04:21:35.139Z,9.72
2022-10-17T04:24:07.574Z,9.91
2022-10-17T04:27:00.297Z,9.70
2022-10-17T04:29:31.379Z,9.87
2022-10-17T04:32:07.419Z,9.86
2022-10-17T04:34:45.850Z,9.74
2022-10-17T04:37:15.555Z,9.63
2022-10-17T04:39:45.459Z,9.64
2022-10-17T04:42:13.696Z,9.61
2022-10-17T04:44:42.361Z,9.87
2022-10-17T04:47:11.013Z,10.03
2022-10-17T04:52:11.926Z,9.84
2022-10-17T04:54:48.801Z,9.83
2022-10-17T04:57:17.228Z,9.92
2022-10-17T04:59:53.531Z,9.90
2022-10-17T05:02:27.793Z,9.89
2022-10-17T05:04:56.677Z,9.82
2022-10-17T05:07:25.799Z,9.85
2022-10-17T05:10:03.648Z,9.93
2022-10-17T05:12:33.181Z,10.02
2022-10-17T05:15:01.342Z,10.13
2022-10-17T05:17:30.463Z,9.88
2022-10-17T05:19:59.037Z,10.05
2022-10-17T05:22:27.502Z,10.10
2022-10-17T05:24:57.905Z,10.27
2022-10-17T05:27:27.581Z,10.26
2022-10-17T05:29:56.093Z,10.65
2022-10-17T05:32:31.001Z,10.66
2022-10-17T05:35:00.067Z,10.71
2022-10-17T05:37:30.564Z,10.94
2022-10-17T05:39:58.891Z,11.12
2022-10-17T05:42:29.334Z,11.49
2022-10-17T05:44:58.681Z,11.65
2022-10-17T05:47:28.537Z,11.66
2022-10-17T05:49:57.119Z,11.79
2022-10-17T05:52:32.461Z,11.87
2022-10-17T05:55:08.992Z,11.91
2022-10-17T05:57:38.717Z,12.07
2022-10-17T06:00:11.840Z,12.04
2022-10-17T06:02:42.858Z,12.03
2022-10-17T06:05:14.341Z,12.07
2022-10-17T06:07:43.365Z,12.16
2022-10-17T06:10:15.064Z,12.25
2022-10-17T06:12:44.853Z,12.29
2022-10-17T06:15:13.391Z,12.29
2022-10-17T06:17:45.015Z,12.29
2022-10-17T06:20:13.169Z,12.37
2022-10-17T06:22:41.278Z,12.48
2022-10-17T06:25:15.384Z,12.56
2022-10-17T06:27:44.877Z,12.59
2022-10-17T06:30:14.085Z,12.85
2022-10-17T06:32:42.801Z,12.92
2022-10-17T06:35:12.022Z,12.93
2022-10-17T06:37:42.154Z,13.09
2022-10-17T06:40:12.309Z,13.22
2022-10-17T06:42:41.170Z,13.41
2022-10-17T06:45:25.949Z,13.46
2022-10-17T06:48:09.624Z,13.50
2022-10-17T06:50:45.548Z,13.63
2022-10-17T06:53:17.900Z,13.66
2022-10-17T06:56:05.483Z,13.72
2022-10-17T06:58:50.803Z,13.73
2022-10-17T07:01:34.253Z,13.84
2022-10-17T07:04:04.608Z,13.80
2022-10-17T07:06:33.228Z,13.87
2022-10-17T07:09:07.730Z,13.91
2022-10-17T07:11:38.230Z,14.18
2022-10-17T07:14:06.841Z,14.28
2022-10-17T07:16:36.451Z,14.46
2022-10-17T07:19:19.263Z,14.40
2022-10-17T07:21:47.605Z,14.45
2022-10-17T07:24:16.855Z,14.51
2022-10-17T07:26:49.541Z,14.56
2022-10-17T07:29:18.248Z,14.72
2022-10-17T07:32:08.479Z,14.74
2022-10-17T07:34:37.194Z,14.96
2022-10-17T07:37:07.452Z,14.92
2022-10-17T07:39:36.579Z,15.10
2022-10-17T07:42:07.457Z,15.13
2022-10-17T07:44:36.562Z,15.33
2022-10-17T07:47:06.468Z,15.41
2022-10-17T07:49:42.392Z,15.41
2022-10-17T07:52:11.949Z,15.55
2022-10-17T07:54:40.374Z,15.48
2022-10-17T07:57:08.942Z,15.50
2022-10-17T07:59:39.093Z,15.59
2022-10-17T08:02:15.150Z,15.70
2022-10-17T08:04:43.348Z,15.71
2022-10-17T08:07:20.023Z,15.89
2022-10-17T08:09:51.305Z,16.05
2022-10-17T08:12:19.577Z,16.13
2022-10-17T08:14:48.166Z,16.34
2022-10-17T08:17:17.665Z,16.15
2022-10-17T08:19:45.822Z,16.24
2022-10-17T08:22:13.981Z,16.33
2022-10-17T08:24:42.816Z,16.54
2022-10-17T08:27:13.121Z,16.67
2022-10-17T08:29:41.828Z,16.75
2022-10-17T08:32:10.471Z,16.88
2022-10-17T08:34:40.014Z,17.08
2022-10-17T08:37:08.249Z,17.13
2022-10-17T08:39:36.428Z,17.28
2022-10-17T08:42:23.553Z,17.60
2022-10-17T08:45:01.871Z,17.71
2022-10-17T08:47:36.058Z,17.69
2022-10-17T08:50:07.975Z,17.82
2022-10-17T08:52:40.590Z,17.94
2022-10-17T08:55:16.385Z,18.05
2022-10-17T08:57:44.792Z,18.47
2022-10-17T09:00:18.156Z,18.62
2022-10-17T09:02:58.532Z,18.38
2022-10-17T09:05:35.784Z,18.58
2022-10-17T09:08:12.440Z,18.67
2022-10-17T09:10:53.510Z,18.93
2022-10-17T09:16:38.236Z,19.12
2022-10-17T09:19:13.461Z,19.34
2022-10-17T09:21:48.471Z,19.45
2022-10-17T09:24:22.440Z,19.39
2022-10-17T09:26:52.157Z,19.78
2022-10-17T09:29:24.103Z,19.84
2022-10-17T09:32:04.372Z,19.67
2022-10-17T09:34:33.710Z,20.01
2022-10-17T09:37:03.857Z,20.06
2022-10-17T09:39:33.072Z,20.04
2022-10-17T09:42:03.210Z,19.75
2022-10-17T09:44:34.014Z,20.17
2022-10-17T09:47:23.453Z,20.09
2022-10-17T09:49:51.699Z,20.13
2022-10-17T09:52:26.466Z,19.93
2022-10-17T09:54:58.853Z,20.23
2022-10-17T09:57:27.452Z,20.33
2022-10-17T10:00:00.889Z,20.13
2022-10-17T10:02:31.222Z,20.12
2022-10-17T10:05:05.146Z,20.29
2022-10-17T10:07:37.624Z,20.59
2022-10-17T10:10:08.469Z,20.63
2022-10-17T10:12:39.631Z,20.65
2022-10-17T10:15:32.113Z,20.73
2022-10-17T10:18:00.404Z,20.81
2022-10-17T10:20:32.384Z,20.86
2022-10-17T10:23:17.289Z,20.84
2022-10-17T10:25:55.832Z,20.82
2022-10-17T10:28:28.110Z,20.85
2022-10-17T10:30:58.074Z,21.07
2022-10-17T10:33:28.620Z,21.03
2022-10-17T10:35:58.765Z,21.05
2022-10-17T10:38:28.805Z,20.93
2022-10-17T10:41:02.437Z,21.10
2022-10-17T10:43:35.761Z,21.51
2022-10-17T10:46:07.348Z,21.49
2022-10-17T10:48:37.197Z,21.40
2022-10-17T10:51:09.184Z,21.59
2022-10-17T10:53:45.339Z,21.55
2022-10-17T10:56:18.267Z,21.47
2022-10-17T10:58:56.517Z,21.61
2022-10-17T11:01:31.396Z,21.49
2022-10-17T11:04:19.077Z,21.43
2022-10-17T11:06:50.313Z,21.33
2022-10-17T11:09:31.419Z,21.40
2022-10-17T11:12:07.892Z,21.18
2022-10-17T11:14:44.959Z,21.28
2022-10-17T11:17:24.121Z,21.48
2022-10-17T11:20:00.391Z,21.57
2022-10-17T11:22:33.086Z,21.60
2022-10-17T11:25:15.404Z,21.62
2022-10-17T11:27:43.659Z,21.69
2022-10-17T11:30:14.799Z,21.66
2022-10-17T11:32:46.752Z,21.61
2022-10-17T11:35:21.822Z,21.80
2022-10-17T11:37:54.993Z,21.79
2022-10-17T11:40:33.806Z,21.79
2022-10-17T11:43:05.886Z,22.01
2022-10-17T11:45:40.214Z,21.99
2022-10-17T11:48:14.676Z,22.02
2022-10-17T11:53:51.629Z,21.88
2022-10-17T11:56:28.594Z,21.98
2022-10-17T11:59:06.777Z,22.15
2022-10-17T12:01:39.987Z,22.05
2022-10-17T12:04:20.782Z,22.07
2022-10-17T12:07:01.030Z,22.19
2022-10-17T12:09:40.790Z,22.14
2022-10-17T12:12:10.649Z,22.28
2022-10-17T12:14:43.535Z,22.45
2022-10-17T12:17:30.636Z,22.71
2022-10-17T12:20:25.159Z,22.68
2022-10-17T12:22:55.257Z,22.82
2022-10-17T12:25:29.787Z,22.84
2022-10-17T12:28:13.533Z,22.92
2022-10-17T12:30:58.521Z,22.98
2022-10-17T12:33:34.611Z,22.94
2022-10-17T12:36:46.710Z,22.84
2022-10-17T12:39:54.069Z,23.07
2022-10-17T12:42:48.579Z,22.87
2022-10-17T12:45:51.350Z,22.86
2022-10-17T12:49:00.109Z,23.07
2022-10-17T12:51:37.897Z,23.22
2022-10-17T12:54:13.227Z,23.02
2022-10-17T12:56:43.933Z,23.00
2022-10-17T12:59:16.830Z,22.85
2022-10-17T13:01:49.507Z,22.75
2022-10-17T13:04:18.790Z,22.94
2022-10-17T13:06:49.700Z,22.97
2022-10-17T13:09:26.021Z,22.80
2022-10-17T13:11:55.050Z,22.89
2022-10-17T13:14:24.437Z,22.79
2022-10-17T13:16:56.851Z,22.72
2022-10-17T13:19:26.992Z,22.65
2022-10-17T13:21:59.856Z,22.66
2022-10-17T13:24:34.347Z,22.71
2022-10-17T13:27:03.271Z,22.61
2022-10-17T13:29:32.792Z,22.67
2022-10-17T13:32:04.764Z,22.56
2022-10-17T13:34:34.735Z,22.46
2022-10-17T13:37:06.000Z,22.56
2022-10-17T13:39:54.398Z,22.58
2022-10-17T13:42:27.230Z,22.62
2022-10-17T13:44:56.770Z,22.51
2022-10-17T13:47:29.346Z,22.50
2022-10-17T13:49:59.050Z,22.58
2022-10-17T13:52:30.899Z,22.49
2022-10-17T13:55:11.733Z,22.62
2022-10-17T13:57:41.711Z,22.56
2022-10-17T14:00:19.296Z,22.55
2022-10-17T14:02:49.840Z,22.59
2022-10-17T14:05:20.522Z,22.51
2022-10-17T14:10:43.212Z,22.54
2022-10-17T14:13:21.909Z,22.58
2022-10-17T14:15:51.171Z,22.61
2022-10-17T14:18:25.357Z,22.58
2022-10-17T14:23:44.337Z,22.33
2022-10-17T14:26:16.469Z,22.35
2022-10-17T14:28:47.058Z,22.32
2022-10-17T14:31:32.102Z,22.42
2022-10-17T14:34:03.807Z,22.34
2022-10-17T14:36:35.690Z,22.39
2022-10-17T14:39:09.479Z,22.34
2022-10-17T14:41:45.343Z,22.17
2022-10-17T14:44:26.821Z,22.21
2022-10-17T14:46:59.359Z,22.18
2022-10-17T14:49:38.018Z,22.13
2022-10-17T14:52:27.616Z,22.19
2022-10-17T14:54:56.497Z,22.07
2022-10-17T14:57:28.409Z,22.08
2022-10-17T14:59:57.820Z,21.95
2022-10-17T15:02:27.292Z,21.95
2022-10-17T15:04:57.162Z,22.03
2022-10-17T15:07:25.377Z,21.93
2022-10-17T15:09:54.543Z,21.77
2022-10-17T15:12:25.703Z,21.75
2022-10-17T15:14:54.724Z,21.70
2022-10-17T15:17:25.693Z,21.55
2022-10-17T15:19:54.237Z,21.49
2022-10-17T15:22:24.501Z,21.40
2022-10-17T15:24:53.034Z,21.29
2022-10-17T15:27:23.690Z,21.26
2022-10-17T15:29:52.988Z,21.10
2022-10-17T15:32:21.384Z,20.98
2022-10-17T15:34:49.745Z,20.84
2022-10-17T15:37:21.957Z,20.70
2022-10-17T15:39:54.299Z,20.50
2022-10-17T15:42:23.784Z,20.43
2022-10-17T15:44:51.940Z,20.29
2022-10-17T15:47:25.366Z,20.29
2022-10-17T15:49:54.208Z,20.21
2022-10-17T15:52:23.008Z,20.19
2022-10-17T15:54:52.836Z,19.99
2022-10-17T15:57:23.567Z,19.83
2022-10-17T15:59:52.573Z,19.86
2022-10-17T16:02:22.902Z,19.74
2022-10-17T16:04:52.595Z,19.81
2022-10-17T16:07:21.682Z,19.53
2022-10-17T16:09:49.867Z,19.34
2022-10-17T16:14:56.636Z,19.13
2022-10-17T16:17:24.804Z,18.99
2022-10-17T16:19:53.062Z,18.95
2022-10-17T16:22:30.043Z,18.79
2022-10-17T16:25:07.389Z,18.59
2022-10-17T16:27:37.867Z,18.45
2022-10-17T16:30:07.900Z,18.42
2022-10-17T16:32:36.092Z,18.31
2022-10-17T16:35:04.956Z,18.23
2022-10-17T16:37:33.116Z,18.14
2022-10-17T16:40:01.220Z,18.07
2022-10-17T16:42:29.673Z,18.09
2022-10-17T16:44:59.482Z,18.14
2022-10-17T16:47:27.660Z,17.99
2022-10-17T16:49:56.270Z,17.99
2022-10-17T16:52:24.461Z,17.78
2022-10-17T16:54:53.151Z,17.68
2022-10-17T16:57:21.366Z,17.65
2022-10-17T16:59:49.578Z,17.72
2022-10-17T17:02:21.278Z,17.80
2022-10-17T17:04:49.888Z,17.80
2022-10-17T17:07:19.640Z,17.77
2022-10-17T17:09:47.904Z,17.71
2022-10-17T17:12:16.358Z,17.69
2022-10-17T17:14:44.529Z,17.80
2022-10-17T17:17:19.675Z,17.81
2022-10-17T17:20:00.167Z,17.58
2022-10-17T17:22:28.328Z,17.60
2022-10-17T17:24:56.781Z,17.44
2022-10-17T17:27:25.183Z,17.58
2022-10-17T17:29:53.659Z,17.44
2022-10-17T17:32:21.832Z,17.63
2022-10-17T17:34:49.988Z,17.61
2022-10-17T17:37:19.508Z,17.99
2022-10-17T17:39:47.696Z,18.04
2022-10-17T17:42:15.921Z,18.12
2022-10-17T17:44:45.085Z,18.08
2022-10-17T17:47:13.287Z,18.17
2022-10-17T17:49:41.535Z,18.28
2022-10-17T17:52:09.731Z,18.31
2022-10-17T17:54:40.955Z,18.44
2022-10-17T17:57:09.339Z,18.33
2022-10-17T17:59:39.085Z,18.29
2022-10-17T18:02:08.837Z,18.28
2022-10-17T18:04:37.085Z,18.28
2022-10-17T18:07:05.619Z,18.39
2022-10-17T18:09:33.797Z,18.37
2022-10-17T18:12:03.274Z,18.46
2022-10-17T18:14:31.434Z,18.47
2022-10-17T18:16:59.595Z,18.52
2022-10-17T18:19:28.300Z,18.31
2022-10-17T18:21:56.565Z,18.19
2022-10-17T18:24:24.742Z,18.12
2022-10-17T18:26:56.031Z,18.09
2022-10-17T18:29:25.551Z,17.99
2022-10-17T18:31:53.672Z,17.94
2022-10-17T18:34:21.962Z,17.94
2022-10-17T18:36:50.845Z,17.75
2022-10-17T18:39:19.121Z,17.94
2022-10-17T18:41:47.448Z,17.75
2022-10-17T18:44:16.834Z,17.63
2022-10-17T18:46:46.935Z,17.67
2022-10-17T18:49:19.513Z,17.62
2022-10-17T18:51:48.000Z,17.57
2022-10-17T18:54:20.381Z,17.61
2022-10-17T18:56:49.968Z,17.61
2022-10-17T18:59:18.374Z,17.47
2022-10-17T19:01:48.370Z,17.60
2022-10-17T19:04:16.852Z,17.47
2022-10-17T19:06:45.450Z,17.31
2022-10-17T19:09:15.097Z,17.35
2022-10-17T19:11:44.012Z,17.16
2022-10-17T19:14:14.025Z,17.17
2022-10-17T19:16:44.152Z,17.14
2022-10-17T19:19:16.311Z,17.18
2022-10-17T19:21:45.337Z,17.19
2022-10-17T19:24:15.251Z,17.27
2022-10-17T19:26:44.527Z,17.17
2022-10-17T19:29:15.340Z,17.11
2022-10-17T19:31:44.348Z,17.19
2022-10-17T19:34:14.992Z,17.24
2022-10-17T19:36:43.726Z,17.21
2022-10-17T19:39:13.987Z,17.27
2022-10-17T19:41:43.042Z,17.14
2022-10-17T19:44:11.677Z,17.04
2022-10-17T19:46:40.068Z,16.92
2022-10-17T19:49:08.683Z,16.88
2022-10-17T19:51:38.153Z,16.79
2022-10-17T19:54:06.315Z,16.74
2022-10-17T19:56:37.663Z,16.64
2022-10-17T19:59:07.109Z,16.59
2022-10-17T20:01:38.766Z,16.51
2022-10-17T20:04:07.434Z,16.54
2022-10-17T20:06:36.161Z,16.56
2022-10-17T20:09:06.877Z,16.44
2022-10-17T20:11:36.381Z,16.44
2022-10-17T20:14:04.529Z,16.36
2022-10-17T20:16:34.398Z,16.41
2022-10-17T20:19:08.350Z,16.37
2022-10-17T20:21:39.418Z,16.26
2022-10-17T20:24:12.048Z,16.22
2022-10-17T20:26:40.429Z,16.13
2022-10-17T20:29:12.526Z,16.05
2022-10-17T20:31:42.394Z,16.01
2022-10-17T20:34:13.964Z,15.99
2022-10-17T20:36:42.145Z,15.95
2022-10-17T20:39:13.321Z,15.89
2022-10-17T20:41:41.863Z,15.84
2022-10-17T20:44:10.500Z,15.82
2022-10-17T20:46:44.778Z,15.86
2022-10-17T20:49:18.780Z,15.77
2022-10-17T20:51:47.181Z,15.76
2022-10-17T20:54:16.784Z,15.71
2022-10-17T20:56:46.291Z,15.65
2022-10-17T20:59:17.019Z,15.65
2022-10-17T21:01:46.188Z,15.65
2022-10-17T21:04:44.730Z,15.54
2022-10-17T21:07:03.407Z,15.51
2022-10-17T21:09:32.995Z,15.52
2022-10-17T21:14:36.393Z,15.35
2022-10-17T21:17:05.583Z,15.29
2022-10-17T21:19:34.157Z,15.28
2022-10-17T21:22:02.545Z,15.24
2022-10-17T21:24:33.174Z,15.23
2022-10-17T21:27:01.347Z,15.11
2022-10-17T21:29:29.592Z,15.11
2022-10-17T21:31:57.710Z,15.08
2022-10-17T21:34:26.280Z,14.99
2022-10-17T21:36:54.533Z,14.96
2022-10-17T21:39:24.178Z,14.88
2022-10-17T21:41:54.391Z,14.86
2022-10-17T21:44:24.266Z,14.69
2022-10-17T21:46:52.805Z,14.70
2022-10-17T21:49:23.327Z,14.57
2022-10-17T21:51:52.823Z,14.58
2022-10-17T21:54:22.923Z,14.63
2022-10-17T21:56:51.900Z,14.57
2022-10-17T21:59:21.365Z,14.68
2022-10-17T22:01:49.868Z,14.63
2022-10-17T22:04:20.242Z,14.64
2022-10-17T22:06:51.410Z,14.69
2022-10-17T22:09:25.478Z,14.70
2022-10-17T22:11:55.676Z,14.69
2022-10-17T22:14:27.321Z,14.73
2022-10-17T22:16:56.163Z,14.69
2022-10-17T22:19:27.584Z,14.69
2022-10-17T22:21:56.140Z,14.73
2022-10-17T22:24:24.278Z,14.63
2022-10-17T22:26:52.711Z,14.64
2022-10-17T22:29:21.019Z,14.56
2022-10-17T22:31:50.736Z,14.43
2022-10-17T22:34:19.664Z,14.43
2022-10-17T22:36:48.886Z,14.40
2022-10-17T22:39:17.121Z,14.38
2022-10-17T22:41:45.319Z,14.23
2022-10-17T22:44:13.763Z,14.24
2022-10-17T22:46:42.012Z,14.13
2022-10-17T22:49:11.515Z,14.16
2022-10-17T22:51:39.659Z,14.25
2022-10-17T22:54:07.886Z,14.05
2022-10-17T22:56:36.037Z,13.94
2022-10-17T22:59:04.769Z,14.00
2022-10-17T23:01:33.051Z,13.82
2022-10-17T23:04:01.297Z,13.83
2022-10-17T23:06:30.917Z,13.82
2022-10-17T23:08:59.078Z,13.78
2022-10-17T23:11:27.222Z,13.72
2022-10-17T23:13:55.399Z,13.72
2022-10-17T23:16:23.912Z,13.72
2022-10-17T23:18:52.055Z,13.63
2022-10-17T23:21:20.180Z,13.58
2022-10-17T23:23:49.805Z,13.58
2022-10-17T23:26:17.926Z,13.53
2022-10-17T23:28:46.127Z,13.69
2022-10-17T23:31:16.793Z,13.76
2022-10-17T23:33:46.195Z,13.49
2022-10-17T23:36:16.132Z,13.30
2022-10-17T23:38:45.943Z,13.54
2022-10-17T23:41:16.037Z,13.51
2022-10-17T23:43:44.778Z,13.52
2022-10-17T23:46:13.626Z,13.21
2022-10-17T23:48:41.815Z,13.19
2022-10-17T23:51:11.905Z,13.34
2022-10-17T23:53:41.224Z,13.49
2022-10-17T23:56:11.337Z,13.57
2022-10-17T23:58:41.084Z,13.50
